createdAt,value
2019-05-29T00:01:12.128Z,11.65
2019-05-29T00:05:10.157Z,11.27
2019-05-29T00:09:12.373Z,11.27
2019-05-29T00:13:14.534Z,11.05
2019-05-29T00:17:16.331Z,11.05
2019-05-29T00:21:18.681Z,11.19
2019-05-29T00:25:20.483Z,11.19
2019-05-29T00:29:22.231Z,11.10
2019-05-29T00:33:24.077Z,11.20
2019-05-29T00:37:26.187Z,11.26
2019-05-29T00:41:28.230Z,11.19
2019-05-29T00:45:30.129Z,10.92
2019-05-29T00:49:32.338Z,10.92
2019-05-29T00:53:34.682Z,11.11
2019-05-29T00:57:37.147Z,11.11
2019-05-29T01:01:38.898Z,11.08
2019-05-29T01:05:40.991Z,11.07
2019-05-29T01:09:42.814Z,10.82
2019-05-29T01:13:44.594Z,10.93
2019-05-29T01:17:46.318Z,11.11
2019-05-29T01:21:48.042Z,10.94
2019-05-29T01:25:49.778Z,10.83
2019-05-29T01:29:51.536Z,10.83
2019-05-29T01:33:56.373Z,10.99
2019-05-29T01:37:58.414Z,10.87
2019-05-29T01:42:00.798Z,10.59
2019-05-29T01:46:02.607Z,10.59
2019-05-29T01:50:05.250Z,10.60
2019-05-29T01:54:07.210Z,10.64
2019-05-29T01:58:09.410Z,10.29
2019-05-29T02:02:11.159Z,10.29
2019-05-29T02:06:13.314Z,10.52
2019-05-29T02:10:16.000Z,10.44
2019-05-29T02:14:18.477Z,10.41
2019-05-29T02:18:20.810Z,10.23
2019-05-29T02:22:23.091Z,10.12
2019-05-29T02:26:25.103Z,10.16
2019-05-29T02:30:30.359Z,10.19
2019-05-29T02:34:30.592Z,10.20
2019-05-29T02:38:32.362Z,10.04
2019-05-29T02:42:34.614Z,10.04
2019-05-29T02:46:36.572Z,10.09
2019-05-29T02:50:38.506Z,10.03
2019-05-29T02:54:40.255Z,10.09
2019-05-29T02:58:42.022Z,10.03
2019-05-29T03:02:43.782Z,10.05
2019-05-29T03:06:46.119Z,10.06
2019-05-29T03:10:47.851Z,10.09
2019-05-29T03:14:50.011Z,9.97
2019-05-29T03:18:51.733Z,9.95
2019-05-29T03:22:53.461Z,9.94
2019-05-29T03:26:55.220Z,9.74
2019-05-29T03:30:57.481Z,9.70
2019-05-29T03:34:59.397Z,9.66
2019-05-29T03:39:01.484Z,9.71
2019-05-29T03:43:03.688Z,9.74
2019-05-29T03:47:05.499Z,9.65
2019-05-29T03:51:07.249Z,9.67
2019-05-29T03:55:09.389Z,9.63
2019-05-29T03:59:11.372Z,9.63
2019-05-29T04:03:13.491Z,9.82
2019-05-29T04:07:15.261Z,9.84
2019-05-29T04:11:16.979Z,9.80
2019-05-29T04:15:19.002Z,9.80
2019-05-29T04:19:22.489Z,9.82
2019-05-29T04:23:27.902Z,9.94
2019-05-29T04:27:32.058Z,10.05
2019-05-29T04:31:34.471Z,9.96
2019-05-29T04:35:36.973Z,9.94
2019-05-29T04:39:39.421Z,10.05
2019-05-29T04:43:41.243Z,10.10
2019-05-29T04:47:43.334Z,10.17
2019-05-29T04:51:45.442Z,10.17
2019-05-29T04:55:47.272Z,10.21
2019-05-29T04:59:49.148Z,10.18
2019-05-29T05:03:51.468Z,10.32
2019-05-29T05:07:53.253Z,10.40
2019-05-29T05:11:55.052Z,10.47
2019-05-29T05:15:59.297Z,10.56
2019-05-29T05:20:01.124Z,10.62
2019-05-29T05:24:03.353Z,10.74
2019-05-29T05:28:05.080Z,10.84
2019-05-29T05:32:06.804Z,10.92
2019-05-29T05:36:08.898Z,11.13
2019-05-29T05:40:10.694Z,11.27
2019-05-29T05:44:12.814Z,12.01
2019-05-29T05:48:14.867Z,12.01
2019-05-29T05:52:16.897Z,12.27
2019-05-29T05:56:19.344Z,12.43
2019-05-29T06:00:31.969Z,12.43
2019-05-29T06:04:33.899Z,12.62
2019-05-29T06:09:03.969Z,12.86
2019-05-29T06:13:05.517Z,13.14
2019-05-29T06:17:07.998Z,13.22
2019-05-29T06:21:10.199Z,13.08
2019-05-29T06:25:12.457Z,13.41
2019-05-29T06:29:14.232Z,13.43
2019-05-29T06:33:16.452Z,13.52
2019-05-29T06:37:18.487Z,13.70
2019-05-29T06:41:20.953Z,13.80
2019-05-29T06:45:29.924Z,13.61
2019-05-29T06:49:31.805Z,13.90
2019-05-29T06:53:33.757Z,14.15
2019-05-29T06:57:36.193Z,14.18
2019-05-29T07:01:39.292Z,14.18
2019-05-29T07:05:46.613Z,14.14
2019-05-29T07:09:45.616Z,14.09
2019-05-29T07:13:50.110Z,14.24
2019-05-29T07:17:51.243Z,14.49
2019-05-29T07:21:53.353Z,14.70
2019-05-29T07:25:55.429Z,14.64
2019-05-29T07:29:57.530Z,14.81
2019-05-29T07:33:59.645Z,14.55
2019-05-29T07:38:02.165Z,14.66
2019-05-29T07:42:05.472Z,14.34
2019-05-29T07:46:07.714Z,14.78
2019-05-29T07:50:10.110Z,15.17
2019-05-29T07:54:12.502Z,15.26
2019-05-29T07:58:14.342Z,15.43
2019-05-29T08:02:16.577Z,15.49
2019-05-29T08:06:18.748Z,15.63
2019-05-29T08:10:21.216Z,15.90
2019-05-29T08:14:23.034Z,15.69
2019-05-29T08:18:24.825Z,16.01
2019-05-29T08:22:34.142Z,15.79
2019-05-29T08:26:30.280Z,15.66
2019-05-29T08:30:32.526Z,15.96
2019-05-29T08:34:34.309Z,16.42
2019-05-29T08:38:37.867Z,16.61
2019-05-29T08:42:40.959Z,16.42
2019-05-29T08:46:57.649Z,16.83
2019-05-29T08:50:47.792Z,17.03
2019-05-29T08:54:50.585Z,17.33
2019-05-29T08:58:52.668Z,17.32
2019-05-29T09:02:54.613Z,17.49
2019-05-29T09:06:57.177Z,17.33
2019-05-29T09:10:59.447Z,17.38
2019-05-29T09:15:01.238Z,17.21
2019-05-29T09:19:03.481Z,17.46
2019-05-29T09:23:05.283Z,17.48
2019-05-29T09:27:07.216Z,17.14
2019-05-29T09:31:09.374Z,17.50
2019-05-29T09:35:11.369Z,17.59
2019-05-29T09:39:16.185Z,17.92
2019-05-29T09:43:19.783Z,18.09
2019-05-29T09:47:22.316Z,18.21
2019-05-29T09:51:25.173Z,18.41
2019-05-29T09:55:27.756Z,18.47
2019-05-29T09:59:29.988Z,18.69
2019-05-29T10:03:31.775Z,18.61
2019-05-29T10:07:34.395Z,18.71
2019-05-29T10:11:36.256Z,19.10
2019-05-29T10:15:38.084Z,19.02
2019-05-29T10:19:40.406Z,19.19
2019-05-29T10:23:42.554Z,18.87
2019-05-29T10:27:44.586Z,18.18
2019-05-29T10:31:47.899Z,18.86
2019-05-29T10:35:53.838Z,18.91
2019-05-29T10:39:54.818Z,19.12
2019-05-29T10:43:56.780Z,18.48
2019-05-29T10:47:58.982Z,18.96
2019-05-29T10:52:14.402Z,19.39
2019-05-29T10:56:05.366Z,19.79
2019-05-29T11:00:07.694Z,19.20
2019-05-29T11:04:09.841Z,19.15
2019-05-29T11:08:12.025Z,19.23
2019-05-29T11:12:14.059Z,19.56
2019-05-29T11:16:16.482Z,19.96
2019-05-29T11:20:20.246Z,20.33
2019-05-29T11:24:22.072Z,20.55
2019-05-29T11:28:23.873Z,20.64
2019-05-29T11:32:25.969Z,20.76
2019-05-29T11:36:28.070Z,20.84
2019-05-29T11:40:30.345Z,20.85
2019-05-29T11:44:32.629Z,20.97
2019-05-29T11:48:34.598Z,21.26
2019-05-29T11:52:43.086Z,21.50
2019-05-29T11:56:40.666Z,21.56
2019-05-29T12:00:43.139Z,21.82
2019-05-29T12:04:45.324Z,21.99
2019-05-29T12:08:47.169Z,21.75
2019-05-29T12:12:49.320Z,20.22
2019-05-29T12:16:51.751Z,20.63
2019-05-29T12:20:53.977Z,20.85
2019-05-29T12:24:56.547Z,20.92
2019-05-29T12:29:04.768Z,21.04
2019-05-29T12:33:03.282Z,21.53
2019-05-29T12:37:06.145Z,21.61
2019-05-29T12:41:09.064Z,22.01
2019-05-29T12:45:11.786Z,21.91
2019-05-29T12:49:13.704Z,21.48
2019-05-29T12:53:29.763Z,21.36
2019-05-29T12:57:23.520Z,20.48
2019-05-29T13:01:25.604Z,20.94
2019-05-29T13:05:27.828Z,21.25
2019-05-29T13:09:29.860Z,21.73
2019-05-29T13:13:31.644Z,21.74
2019-05-29T13:17:33.591Z,21.86
2019-05-29T13:21:35.460Z,22.32
2019-05-29T13:25:37.260Z,22.57
2019-05-29T13:29:39.586Z,22.33
2019-05-29T13:33:42.070Z,22.24
2019-05-29T13:37:44.138Z,21.89
2019-05-29T13:41:46.094Z,21.15
2019-05-29T13:45:47.833Z,20.90
2019-05-29T13:49:50.197Z,19.88
2019-05-29T13:54:02.435Z,20.71
2019-05-29T13:57:57.604Z,21.44
2019-05-29T14:02:00.288Z,21.86
2019-05-29T14:06:03.706Z,22.27
2019-05-29T14:10:07.750Z,21.11
2019-05-29T14:14:13.002Z,22.09
2019-05-29T14:18:14.740Z,22.12
2019-05-29T14:22:16.576Z,22.68
2019-05-29T14:26:19.046Z,22.92
2019-05-29T14:30:21.781Z,23.19
2019-05-29T14:34:23.599Z,23.23
2019-05-29T14:38:25.372Z,23.41
2019-05-29T14:42:27.694Z,23.44
2019-05-29T14:46:29.605Z,23.60
2019-05-29T14:50:31.757Z,23.50
2019-05-29T14:54:41.603Z,23.58
2019-05-29T14:58:37.517Z,23.59
2019-05-29T15:02:39.622Z,23.47
2019-05-29T15:06:41.726Z,23.35
2019-05-29T15:10:43.885Z,23.31
2019-05-29T15:14:45.612Z,23.44
2019-05-29T15:18:47.715Z,23.59
2019-05-29T15:22:49.909Z,23.60
2019-05-29T15:26:51.657Z,23.69
2019-05-29T15:30:53.482Z,21.55
2019-05-29T15:34:55.615Z,22.39
2019-05-29T15:38:57.471Z,22.47
2019-05-29T15:42:59.847Z,22.26
2019-05-29T15:47:02.129Z,22.15
2019-05-29T15:51:04.729Z,21.42
2019-05-29T15:55:23.529Z,20.83
2019-05-29T15:59:12.597Z,20.20
2019-05-29T16:03:15.727Z,20.70
2019-05-29T16:07:18.243Z,20.08
2019-05-29T16:11:20.165Z,20.23
2019-05-29T16:15:22.229Z,20.32
2019-05-29T16:19:24.314Z,21.55
2019-05-29T16:23:35.132Z,22.34
2019-05-29T16:27:31.097Z,21.22
2019-05-29T16:31:33.433Z,21.87
2019-05-29T16:35:37.530Z,22.20
2019-05-29T16:39:39.177Z,22.75
2019-05-29T16:43:41.429Z,22.97
2019-05-29T16:47:43.295Z,24.86
2019-05-29T16:51:45.428Z,24.92
2019-05-29T16:55:53.726Z,26.12
2019-05-29T16:59:51.097Z,28.26
2019-05-29T17:03:53.329Z,30.68
2019-05-29T17:07:55.169Z,32.04
2019-05-29T17:11:57.736Z,32.80
2019-05-29T17:15:59.958Z,31.92
2019-05-29T17:20:02.120Z,30.31
2019-05-29T17:24:04.380Z,31.83
2019-05-29T17:28:06.840Z,32.89
2019-05-29T17:32:08.638Z,32.86
2019-05-29T17:36:10.411Z,32.63
2019-05-29T17:40:12.725Z,32.55
2019-05-29T17:44:15.809Z,33.08
2019-05-29T17:48:17.755Z,32.75
2019-05-29T17:52:20.087Z,30.59
2019-05-29T17:56:33.643Z,28.71
2019-05-29T18:00:26.690Z,27.17
2019-05-29T18:04:28.642Z,26.03
2019-05-29T18:08:31.104Z,25.03
2019-05-29T18:12:33.221Z,24.25
2019-05-29T18:16:36.842Z,23.67
2019-05-29T18:20:38.810Z,23.22
2019-05-29T18:24:40.821Z,22.99
2019-05-29T18:28:43.705Z,22.61
2019-05-29T18:32:46.229Z,22.32
2019-05-29T18:36:48.005Z,22.18
2019-05-29T18:40:50.194Z,22.11
2019-05-29T18:44:52.230Z,22.11
2019-05-29T18:48:54.181Z,22.03
2019-05-29T18:52:56.871Z,21.90
2019-05-29T18:57:14.366Z,21.76
2019-05-29T19:01:03.847Z,21.75
2019-05-29T19:05:06.791Z,21.53
2019-05-29T19:09:08.761Z,21.40
2019-05-29T19:13:10.840Z,21.23
2019-05-29T19:17:12.747Z,21.24
2019-05-29T19:21:14.819Z,21.11
2019-05-29T19:25:16.621Z,21.04
2019-05-29T19:29:18.673Z,20.89
2019-05-29T19:33:20.807Z,20.85
2019-05-29T19:37:23.745Z,20.93
2019-05-29T19:41:25.806Z,20.89
2019-05-29T19:45:28.575Z,20.92
2019-05-29T19:49:30.935Z,20.86
2019-05-29T19:53:33.495Z,20.86
2019-05-29T19:57:52.460Z,20.89
2019-05-29T20:01:40.572Z,21.00
2019-05-29T20:05:42.844Z,20.90
2019-05-29T20:09:45.052Z,20.65
2019-05-29T20:13:47.096Z,20.34
2019-05-29T20:17:49.274Z,20.03
2019-05-29T20:21:51.509Z,19.80
2019-05-29T20:25:53.618Z,19.62
2019-05-29T20:29:55.626Z,19.47
2019-05-29T20:33:57.554Z,19.32
2019-05-29T20:37:59.672Z,19.23
2019-05-29T20:42:02.248Z,19.04
2019-05-29T20:46:04.057Z,18.90
2019-05-29T20:50:06.509Z,18.77
2019-05-29T20:54:11.928Z,18.62
2019-05-29T20:58:24.207Z,18.45
2019-05-29T21:02:18.550Z,18.34
2019-05-29T21:06:20.539Z,18.28
2019-05-29T21:10:22.442Z,18.24
2019-05-29T21:14:24.496Z,18.16
2019-05-29T21:18:26.792Z,18.12
2019-05-29T21:22:28.588Z,18.07
2019-05-29T21:26:30.545Z,18.03
2019-05-29T21:30:32.830Z,18.00
2019-05-29T21:34:35.716Z,17.93
2019-05-29T21:38:38.068Z,17.90
2019-05-29T21:42:40.583Z,17.83
2019-05-29T21:46:43.059Z,17.77
2019-05-29T21:50:45.475Z,17.75
2019-05-29T21:54:48.184Z,17.69
2019-05-29T21:59:03.134Z,17.65
2019-05-29T22:02:53.974Z,17.61
2019-05-29T22:06:55.812Z,17.57
2019-05-29T22:10:58.153Z,17.55
2019-05-29T22:15:01.494Z,17.42
2019-05-29T22:19:04.319Z,17.40
2019-05-29T22:23:07.856Z,17.26
2019-05-29T22:27:10.913Z,17.16
2019-05-29T22:31:13.042Z,17.05
2019-05-29T22:35:15.701Z,16.95
2019-05-29T22:39:18.718Z,16.89
2019-05-29T22:43:20.938Z,16.78
2019-05-29T22:47:23.935Z,16.69
2019-05-29T22:54:59.977Z,16.55
2019-05-29T22:59:02.324Z,16.45
2019-05-29T23:03:04.371Z,16.37
2019-05-29T23:07:06.126Z,16.32
2019-05-29T23:11:08.375Z,16.22
2019-05-29T23:15:10.125Z,16.10
2019-05-29T23:19:12.603Z,16.04
2019-05-29T23:23:15.158Z,15.95
2019-05-29T23:27:17.307Z,15.90
2019-05-29T23:31:19.590Z,15.90
2019-05-29T23:35:21.418Z,15.82
2019-05-29T23:39:23.164Z,15.73
2019-05-29T23:43:24.888Z,15.69
2019-05-29T23:47:26.769Z,15.61
2019-05-29T23:51:28.829Z,15.60
2019-05-29T23:55:30.625Z,15.58
2019-05-29T23:59:32.685Z,15.57
